Time;durP1;ratioP1;P1;durP2;ratioP2;P2;SDS_P1;SDS_P2;PMS_P1;PMS_P2;Temp;Humidity;BMP_temperature;BMP_pressure;BME280_temperature;BME280_humidity;BME280_pressure;Samples;Min_cycle;Max_cycle;Signal;HPM_P1;HPM_P2
2022/03/02 00:00:40;;;;;;;31.48;22.90;;;13.20;64.30;;;;;;5094415;28;20024;-61
2022/03/02 00:03:05;;;;;;;33.03;23.60;;;13.20;64.30;;;;;;5094302;28;20098;-60
2022/03/02 00:05:31;;;;;;;31.58;24.52;;;13.20;64.10;;;;;;5093987;28;20032;-61
2022/03/02 00:07:57;;;;;;;28.05;23.92;;;13.20;64.30;;;;;;5093648;28;20491;-61
2022/03/02 00:10:23;;;;;;;28.50;22.38;;;13.20;64.80;;;;;;5094058;28;20055;-68
2022/03/02 00:12:48;;;;;;;33.95;23.70;;;13.20;64.20;;;;;;5093851;28;20028;-61
2022/03/02 00:15:14;;;;;;;29.10;25.00;;;13.10;64.30;;;;;;5093750;28;20513;-60
2022/03/02 00:17:40;;;;;;;32.63;24.67;;;13.20;64.30;;;;;;5092758;28;20024;-60
2022/03/02 00:20:06;;;;;;;32.70;24.92;;;13.10;64.00;;;;;;5092198;28;20038;-67
2022/03/02 00:22:31;;;;;;;28.27;23.45;;;13.20;64.20;;;;;;5091880;28;20116;-60
2022/03/02 00:24:57;;;;;;;31.27;23.65;;;13.10;64.00;;;;;;5093123;28;20048;-60
2022/03/02 00:27:23;;;;;;;30.67;22.75;;;13.20;64.00;;;;;;5093695;28;20032;-60
2022/03/02 00:29:49;;;;;;;30.10;23.33;;;13.10;64.00;;;;;;5093524;28;20020;-61
2022/03/02 00:32:15;;;;;;;28.27;23.08;;;13.00;64.30;;;;;;5093551;28;20055;-61
2022/03/02 00:34:41;;;;;;;28.98;23.50;;;13.00;64.40;;;;;;5093526;28;20053;-60
2022/03/02 00:37:07;;;;;;;30.35;22.95;;;13.00;65.30;;;;;;5093431;28;20020;-60
2022/03/02 00:39:33;;;;;;;28.75;22.95;;;13.00;64.60;;;;;;5093621;28;20028;-60
2022/03/02 00:41:58;;;;;;;28.35;22.80;;;13.00;64.80;;;;;;5093735;28;20012;-61
2022/03/02 00:44:24;;;;;;;28.52;22.05;;;13.00;64.80;;;;;;5093463;28;20431;-61
2022/03/02 00:46:50;;;;;;;29.13;23.17;;;13.00;64.90;;;;;;5093165;28;20473;-61
2022/03/02 00:49:16;;;;;;;27.90;22.58;;;12.90;64.80;;;;;;5093443;28;20052;-61
2022/03/02 00:51:42;;;;;;;27.95;22.92;;;12.90;65.00;;;;;;5093269;28;20035;-60
2022/03/02 00:54:09;;;;;;;30.27;23.30;;;12.90;64.80;;;;;;5093373;28;20509;-61
2022/03/02 00:56:35;;;;;;;31.25;24.52;;;12.90;65.40;;;;;;5093506;28;20489;-62
2022/03/02 00:59:00;;;;;;;28.33;23.23;;;12.90;65.80;;;;;;5093156;28;20024;-61
2022/03/02 01:01:26;;;;;;;31.45;23.17;;;12.90;65.60;;;;;;5093449;28;20042;-65
2022/03/02 01:03:51;;;;;;;26.58;22.70;;;12.90;65.20;;;;;;5093474;28;20028;-61
2022/03/02 01:06:18;;;;;;;34.22;22.33;;;12.90;64.90;;;;;;5092882;28;20602;-62
2022/03/02 01:08:43;;;;;;;29.95;22.98;;;12.90;64.90;;;;;;5093609;28;20514;-61
2022/03/02 01:11:09;;;;;;;26.23;23.33;;;12.90;64.80;;;;;;5093030;28;20024;-61
2022/03/02 01:13:35;;;;;;;32.03;23.27;;;13.00;64.90;;;;;;5093160;28;20027;-61
2022/03/02 01:16:01;;;;;;;29.67;23.13;;;12.90;64.70;;;;;;5093164;28;20024;-61
2022/03/02 01:18:26;;;;;;;27.42;23.20;;;12.90;64.60;;;;;;5093083;28;20034;-61
2022/03/02 01:20:52;;;;;;;29.83;22.75;;;12.90;64.70;;;;;;5092780;28;20107;-61
2022/03/02 01:23:18;;;;;;;30.88;23.67;;;12.90;64.70;;;;;;5093185;28;20104;-61
2022/03/02 01:25:44;;;;;;;29.50;23.83;;;12.90;64.80;;;;;;5092929;28;20077;-61
2022/03/02 01:28:10;;;;;;;31.20;23.13;;;12.90;64.60;;;;;;5093238;28;20046;-61
2022/03/02 01:30:35;;;;;;;28.02;21.48;;;12.90;64.60;;;;;;5092991;28;20024;-61
2022/03/02 01:33:01;;;;;;;26.15;22.30;;;12.90;64.60;;;;;;5092949;28;20021;-60
2022/03/02 01:35:27;;;;;;;25.15;21.48;;;12.90;64.70;;;;;;5092674;28;20066;-61
2022/03/02 01:37:52;;;;;;;27.80;21.73;;;12.80;64.70;;;;;;5092924;28;20028;-68
2022/03/02 01:40:18;;;;;;;26.70;22.17;;;12.80;64.70;;;;;;5092678;28;20540;-61
2022/03/02 01:42:44;;;;;;;28.52;23.17;;;12.80;65.60;;;;;;5093196;28;20058;-61
2022/03/02 01:45:12;;;;;;;25.05;21.17;;;12.70;65.90;;;;;;5092975;28;20035;-61
2022/03/02 01:47:38;;;;;;;31.70;22.55;;;12.80;65.70;;;;;;5092996;28;20035;-66
2022/03/02 01:50:06;;;;;;;29.77;22.50;;;12.80;65.60;;;;;;5092410;28;20024;-61
2022/03/02 01:52:32;;;;;;;29.65;22.58;;;12.80;65.20;;;;;;5092837;28;20614;-61
2022/03/02 01:54:57;;;;;;;33.13;22.90;;;12.80;65.00;;;;;;5092808;28;20107;-61
2022/03/02 01:57:23;;;;;;;25.42;21.08;;;12.80;64.90;;;;;;5092707;28;20483;-62
2022/03/02 01:59:49;;;;;;;30.08;22.13;;;12.80;64.90;;;;;;5095965;28;20039;-61
2022/03/02 02:02:15;;;;;;;30.92;22.77;;;12.80;64.80;;;;;;5096646;28;20024;-61
2022/03/02 02:04:41;;;;;;;32.70;22.95;;;12.80;65.10;;;;;;5096385;28;20024;-68
2022/03/02 02:07:06;;;;;;;30.65;22.17;;;12.80;64.90;;;;;;5096412;28;20071;-68
2022/03/02 02:09:32;;;;;;;31.67;22.35;;;12.70;65.10;;;;;;5096449;28;20020;-68
2022/03/02 02:11:58;;;;;;;31.67;22.55;;;12.70;65.10;;;;;;5096627;28;20028;-67
2022/03/02 02:14:23;;;;;;;29.58;22.90;;;12.70;65.10;;;;;;5096550;28;20020;-61
2022/03/02 02:16:49;;;;;;;25.92;22.02;;;12.70;65.00;;;;;;5096180;28;20527;-61
2022/03/02 02:19:14;;;;;;;28.83;21.50;;;12.70;65.10;;;;;;5078027;28;20020;-65
2022/03/02 02:21:40;;;;;;;28.88;23.00;;;12.70;65.10;;;;;;5096183;28;20032;-61
2022/03/02 02:24:06;;;;;;;35.17;23.08;;;12.70;65.20;;;;;;5096357;28;20021;-62
2022/03/02 02:26:32;;;;;;;29.35;21.38;;;12.60;65.20;;;;;;5095914;28;20499;-66
2022/03/02 02:28:58;;;;;;;29.20;23.35;;;12.60;65.40;;;;;;5096096;28;20024;-68
2022/03/02 02:31:24;;;;;;;26.15;22.52;;;12.60;65.40;;;;;;5096038;28;20024;-63
2022/03/02 02:33:51;;;;;;;30.52;23.20;;;12.60;65.40;;;;;;5095920;28;20492;-67
2022/03/02 02:36:18;;;;;;;26.73;22.90;;;12.60;65.50;;;;;;5095829;28;20031;-62
2022/03/02 02:38:44;;;;;;;27.85;22.00;;;12.60;65.50;;;;;;5096000;28;20047;-62
2022/03/02 02:41:10;;;;;;;26.20;23.23;;;12.60;65.60;;;;;;5096000;28;20056;-61
2022/03/02 02:43:37;;;;;;;28.13;22.55;;;12.50;65.60;;;;;;5095927;28;20024;-66
2022/03/02 02:46:03;;;;;;;31.38;22.60;;;12.50;65.60;;;;;;5095685;28;20032;-61
2022/03/02 02:48:29;;;;;;;31.08;23.25;;;12.50;65.80;;;;;;5095385;28;20024;-68
2022/03/02 02:50:55;;;;;;;27.90;22.58;;;12.50;65.60;;;;;;5077768;28;20500;-65
2022/03/02 02:53:20;;;;;;;27.20;22.48;;;12.50;65.40;;;;;;5096172;28;20040;-67
2022/03/02 02:55:47;;;;;;;27.58;22.08;;;12.50;65.20;;;;;;5095730;28;20031;-63
2022/03/02 02:58:14;;;;;;;28.67;22.38;;;12.40;65.30;;;;;;5095632;28;20024;-68
2022/03/02 03:00:42;;;;;;;26.13;21.20;;;12.50;65.20;;;;;;5095429;28;20143;-69
2022/03/02 03:03:08;;;;;;;28.60;22.63;;;12.40;65.20;;;;;;5095221;28;20062;-67
2022/03/02 03:05:34;;;;;;;27.98;20.77;;;12.40;65.20;;;;;;5095465;28;20043;-61
2022/03/02 03:08:06;;;;;;;30.55;21.15;;;12.40;65.20;;;;;;5095375;28;20381;-64
2022/03/02 03:10:32;;;;;;;27.58;21.75;;;12.40;65.10;;;;;;5095253;28;20069;-68
2022/03/02 03:12:59;;;;;;;30.27;21.67;;;12.40;65.10;;;;;;5095446;28;20028;-61
2022/03/02 03:15:24;;;;;;;25.90;20.83;;;12.30;65.20;;;;;;5095193;28;20044;-68
2022/03/02 03:17:51;;;;;;;28.75;22.77;;;12.30;65.20;;;;;;5094840;28;20074;-67
2022/03/02 03:20:19;;;;;;;27.50;21.45;;;12.30;65.10;;;;;;5094958;28;20111;-61
2022/03/02 03:22:46;;;;;;;29.38;21.27;;;12.30;65.20;;;;;;5095109;28;20107;-65
2022/03/02 03:25:12;;;;;;;30.52;22.15;;;12.30;64.90;;;;;;5095042;28;20028;-68
2022/03/02 03:27:39;;;;;;;26.08;21.48;;;12.20;64.90;;;;;;5094933;28;20028;-66
2022/03/02 03:30:06;;;;;;;29.73;21.92;;;12.20;64.80;;;;;;5094887;28;20089;-61
2022/03/02 03:32:32;;;;;;;26.38;20.75;;;12.20;64.70;;;;;;5094478;28;20024;-66
2022/03/02 03:34:59;;;;;;;28.02;21.38;;;12.20;65.20;;;;;;5094766;28;20111;-61
2022/03/02 03:37:25;;;;;;;23.75;20.75;;;12.20;64.60;;;;;;5095009;28;20047;-68
2022/03/02 03:39:51;;;;;;;27.55;21.63;;;12.20;64.20;;;;;;5094753;28;20025;-69
2022/03/02 03:42:16;;;;;;;25.52;19.92;;;12.20;64.30;;;;;;5094551;28;20074;-68
2022/03/02 03:44:42;;;;;;;27.48;20.80;;;12.20;64.20;;;;;;5094930;28;20031;-64
2022/03/02 03:47:08;;;;;;;25.15;19.67;;;12.20;64.00;;;;;;5094531;28;20039;-66
2022/03/02 03:49:34;;;;;;;24.48;19.08;;;12.10;63.70;;;;;;5094135;28;20032;-64
2022/03/02 03:51:59;;;;;;;27.45;20.08;;;12.10;63.70;;;;;;5094537;28;20043;-61
2022/03/02 03:54:25;;;;;;;25.00;20.08;;;12.20;63.70;;;;;;5094483;28;20024;-65
2022/03/02 03:56:51;;;;;;;25.05;19.92;;;12.10;63.60;;;;;;5094657;28;20061;-65
2022/03/02 03:59:16;;;;;;;25.15;19.60;;;12.10;63.60;;;;;;5094359;28;20024;-64
2022/03/02 04:01:42;;;;;;;27.33;20.75;;;12.10;63.30;;;;;;5094244;28;20073;-64
2022/03/02 04:04:08;;;;;;;25.25;19.50;;;12.10;63.20;;;;;;5094338;28;20545;-61
2022/03/02 04:06:33;;;;;;;24.77;19.17;;;12.10;63.20;;;;;;5094278;28;20118;-61
2022/03/02 04:08:59;;;;;;;28.25;20.42;;;12.10;63.10;;;;;;5094168;28;20095;-61
2022/03/02 04:11:25;;;;;;;27.60;18.75;;;12.10;63.10;;;;;;5094082;28;20020;-61
2022/03/02 04:13:50;;;;;;;27.90;19.80;;;12.00;63.20;;;;;;5094211;28;20020;-61
2022/03/02 04:16:16;;;;;;;24.70;19.63;;;12.10;63.30;;;;;;5093794;28;20031;-61
2022/03/02 04:18:41;;;;;;;23.88;20.20;;;12.00;63.30;;;;;;5093795;28;20028;-61
2022/03/02 04:21:08;;;;;;;40.17;22.08;;;11.90;63.20;;;;;;5093648;28;20028;-63
2022/03/02 04:23:34;;;;;;;26.65;20.45;;;12.00;63.80;;;;;;5093972;28;20052;-62
2022/03/02 04:26:00;;;;;;;27.73;20.40;;;12.00;63.60;;;;;;5093978;28;20024;-62
2022/03/02 04:28:25;;;;;;;24.55;19.30;;;12.00;63.00;;;;;;5093779;28;20039;-62
2022/03/02 04:30:51;;;;;;;25.10;20.27;;;12.10;62.90;;;;;;5093632;28;20024;-62
2022/03/02 04:33:17;;;;;;;25.08;20.77;;;12.00;63.40;;;;;;5093725;28;20024;-62
2022/03/02 04:35:42;;;;;;;24.65;19.60;;;12.00;62.80;;;;;;5093816;28;20028;-62
2022/03/02 04:38:10;;;;;;;26.60;19.10;;;12.10;62.80;;;;;;5093829;28;20081;-62
2022/03/02 04:40:36;;;;;;;24.38;20.02;;;12.00;62.80;;;;;;5093482;28;20058;-62
2022/03/02 04:43:01;;;;;;;24.15;19.65;;;12.00;62.80;;;;;;5093650;28;20027;-62
2022/03/02 04:45:29;;;;;;;27.40;20.30;;;12.00;62.80;;;;;;5091927;28;20031;-61
2022/03/02 04:47:59;;;;;;;27.70;20.80;;;12.00;63.00;;;;;;5088280;28;20036;-62
2022/03/02 04:50:26;;;;;;;24.60;18.20;;;11.90;62.90;;;;;;5073118;28;20443;-62
2022/03/02 04:52:53;;;;;;;23.73;19.95;;;12.00;63.50;;;;;;5073374;28;20438;-62
2022/03/02 04:55:19;;;;;;;33.83;20.65;;;11.90;63.00;;;;;;5073083;28;20020;-62
2022/03/02 04:57:50;;;;;;;25.65;19.20;;;11.90;62.80;;;;;;5072936;28;20020;-62
2022/03/02 05:00:20;;;;;;;24.88;20.35;;;11.90;62.90;;;;;;5072756;28;20020;-62
2022/03/02 05:02:46;;;;;;;25.30;19.90;;;11.90;62.80;;;;;;5073035;28;20450;-62
2022/03/02 05:05:14;;;;;;;24.92;19.85;;;11.80;62.90;;;;;;5072678;28;20052;-62
2022/03/02 05:07:41;;;;;;;27.83;19.88;;;11.80;62.80;;;;;;5073061;28;20036;-62
2022/03/02 05:10:08;;;;;;;26.88;19.77;;;11.80;62.70;;;;;;5072925;28;20025;-62
2022/03/02 05:12:34;;;;;;;22.83;18.60;;;11.80;62.80;;;;;;5072476;28;20064;-62
2022/03/02 05:15:00;;;;;;;23.77;19.50;;;11.70;63.00;;;;;;5072994;28;20493;-62
2022/03/02 05:17:26;;;;;;;25.25;19.10;;;11.70;62.80;;;;;;5073122;28;20115;-62
2022/03/02 05:19:52;;;;;;;21.67;18.52;;;11.80;62.70;;;;;;5073208;28;20078;-62
2022/03/02 05:22:17;;;;;;;24.58;18.85;;;11.70;62.90;;;;;;5073019;28;20037;-62
2022/03/02 05:24:43;;;;;;;24.83;18.88;;;11.70;63.00;;;;;;5072476;28;20016;-62
2022/03/02 05:27:09;;;;;;;25.65;19.30;;;11.70;63.00;;;;;;5088332;28;20075;-62
2022/03/02 05:29:35;;;;;;;23.02;18.83;;;11.70;62.90;;;;;;5092547;28;20383;-62
2022/03/02 05:32:01;;;;;;;27.92;20.38;;;11.70;62.90;;;;;;5093128;28;20103;-62
2022/03/02 05:34:27;;;;;;;28.13;20.52;;;11.70;63.00;;;;;;5095493;28;20417;-62
2022/03/02 05:36:52;;;;;;;24.52;18.80;;;11.60;63.00;;;;;;5096908;28;20020;-62
2022/03/02 05:39:18;;;;;;;22.88;18.20;;;11.60;63.20;;;;;;5097154;28;20461;-62
2022/03/02 05:41:44;;;;;;;25.52;21.23;;;11.60;63.10;;;;;;5096483;28;20028;-62
2022/03/02 05:44:11;;;;;;;27.55;19.88;;;11.70;63.20;;;;;;5096880;28;20024;-62
2022/03/02 05:46:37;;;;;;;25.17;19.45;;;11.60;63.00;;;;;;5096633;28;20283;-63
2022/03/02 05:49:04;;;;;;;24.17;20.25;;;11.60;63.10;;;;;;5096973;28;20085;-61
2022/03/02 05:51:30;;;;;;;23.08;19.02;;;11.70;63.00;;;;;;5096424;28;20036;-62
2022/03/02 05:53:56;;;;;;;25.50;19.88;;;11.60;63.00;;;;;;5096797;28;21557;-62
2022/03/02 05:56:23;;;;;;;23.85;18.85;;;11.60;63.00;;;;;;5096250;28;20016;-61
2022/03/02 05:58:49;;;;;;;26.60;20.02;;;11.60;63.10;;;;;;5096663;28;20477;-62
2022/03/02 06:01:15;;;;;;;28.27;20.13;;;11.60;63.10;;;;;;5090028;28;20127;-62
2022/03/02 06:03:40;;;;;;;25.55;19.50;;;11.60;63.10;;;;;;5096480;28;20020;-65
2022/03/02 06:06:06;;;;;;;26.58;19.20;;;11.50;63.20;;;;;;5095128;28;20389;-62
2022/03/02 06:08:32;;;;;;;23.45;19.08;;;11.50;63.50;;;;;;5096439;28;20470;-67
2022/03/02 06:10:57;;;;;;;26.15;20.45;;;11.50;63.40;;;;;;5096356;28;20028;-64
2022/03/02 06:13:23;;;;;;;26.85;19.48;;;11.50;63.70;;;;;;5095598;28;20020;-62
2022/03/02 06:15:49;;;;;;;24.52;19.70;;;11.40;63.40;;;;;;5096338;28;20378;-62
2022/03/02 06:18:15;;;;;;;25.23;18.90;;;11.40;63.50;;;;;;5096514;28;20028;-62
2022/03/02 06:20:42;;;;;;;24.70;18.85;;;11.40;63.40;;;;;;5095818;28;20057;-62
2022/03/02 06:23:08;;;;;;;24.63;19.17;;;11.40;63.50;;;;;;5096262;28;20389;-68
2022/03/02 06:25:34;;;;;;;24.73;18.55;;;11.40;63.30;;;;;;5095211;28;20488;-62
2022/03/02 06:27:59;;;;;;;25.45;18.90;;;11.40;63.40;;;;;;5095110;28;20107;-62
2022/03/02 06:30:25;;;;;;;24.77;19.05;;;11.40;63.50;;;;;;5077999;28;20135;-62
2022/03/02 06:32:52;;;;;;;24.38;18.83;;;11.40;63.50;;;;;;5096006;28;20024;-62
2022/03/02 06:35:18;;;;;;;25.75;19.30;;;11.40;63.30;;;;;;5094171;28;20031;-62
2022/03/02 06:37:45;;;;;;;26.52;18.75;;;11.30;63.50;;;;;;5081115;28;20107;-65
2022/03/02 06:40:13;;;;;;;24.05;20.45;;;11.30;63.40;;;;;;5074972;28;20389;-62
2022/03/02 06:43:00;;;;;;;28.00;19.90;;;11.30;63.50;;;;;;5075600;28;20036;-67
2022/03/02 06:45:40;;;;;;;28.13;21.13;;;11.30;63.10;;;;;;5074946;28;20024;-62
2022/03/02 06:48:34;;;;;;;27.88;20.30;;;11.30;63.20;;;;;;5090928;28;20163;-61
2022/03/02 06:51:01;;;;;;;23.85;18.17;;;11.30;63.20;;;;;;5059120;28;20404;-68
2022/03/02 06:53:35;;;;;;;25.55;19.20;;;11.20;63.20;;;;;;5088453;28;20023;-63
2022/03/02 06:56:06;;;;;;;27.02;18.63;;;11.20;62.90;;;;;;5092589;28;20114;-64
2022/03/02 06:58:48;;;;;;;27.25;20.02;;;11.10;63.20;;;;;;5093447;28;20372;-61
2022/03/02 07:01:22;;;;;;;30.03;19.43;;;11.10;63.20;;;;;;5093664;28;20105;-61
2022/03/02 07:03:50;;;;;;;25.88;19.73;;;11.10;63.40;;;;;;5093667;28;20020;-67
2022/03/02 07:06:17;;;;;;;23.90;19.35;;;11.10;63.00;;;;;;5093598;28;20028;-66
2022/03/02 07:08:45;;;;;;;25.23;19.75;;;11.10;62.70;;;;;;5092772;28;20082;-64
2022/03/02 07:11:12;;;;;;;25.30;18.35;;;11.10;62.70;;;;;;5092984;28;20070;-61
2022/03/02 07:13:38;;;;;;;25.13;18.77;;;11.10;62.80;;;;;;5095186;28;20021;-63
2022/03/02 07:16:04;;;;;;;25.08;18.88;;;11.10;62.70;;;;;;5091789;28;20023;-62
2022/03/02 07:18:29;;;;;;;28.42;19.23;;;11.10;62.80;;;;;;5095009;28;20077;-63
2022/03/02 07:20:58;;;;;;;26.20;19.25;;;11.10;62.70;;;;;;5094183;28;20036;-64
2022/03/02 07:23:34;;;;;;;31.35;20.67;;;11.10;62.60;;;;;;5091971;28;20024;-61
2022/03/02 07:26:00;;;;;;;88.60;26.33;;;11.10;62.60;;;;;;5092827;28;20419;-69
2022/03/02 07:28:26;;;;;;;33.30;20.38;;;11.10;62.90;;;;;;5095092;28;20072;-61
2022/03/02 07:30:57;;;;;;;30.17;19.80;;;11.10;62.90;;;;;;5091947;28;20083;-61
2022/03/02 07:33:23;;;;;;;28.85;19.08;;;11.10;62.80;;;;;;5094342;28;20039;-61
2022/03/02 07:35:56;;;;;;;31.58;19.38;;;11.10;62.90;;;;;;5095132;28;20056;-63
2022/03/02 07:38:22;;;;;;;26.27;18.58;;;11.10;62.80;;;;;;5091966;28;20099;-65
2022/03/02 07:40:49;;;;;;;30.42;19.33;;;11.10;63.20;;;;;;5093631;28;20540;-63
2022/03/02 07:43:15;;;;;;;27.15;19.55;;;11.10;63.10;;;;;;5093545;28;20024;-61
2022/03/02 07:45:41;;;;;;;27.83;20.25;;;11.20;63.20;;;;;;5094071;28;20020;-62
2022/03/02 07:48:07;;;;;;;27.63;19.25;;;11.20;62.80;;;;;;5094366;28;20545;-62
2022/03/02 07:50:33;;;;;;;23.95;18.83;;;11.20;62.60;;;;;;5092970;28;20047;-61
2022/03/02 07:53:00;;;;;;;25.15;18.35;;;11.10;62.40;;;;;;5092422;28;20110;-66
2022/03/02 07:55:28;;;;;;;24.48;19.08;;;11.20;62.30;;;;;;5087950;28;20395;-68
2022/03/02 07:57:55;;;;;;;29.10;20.52;;;11.20;62.50;;;;;;5089907;28;20027;-61
2022/03/02 08:00:22;;;;;;;26.00;18.58;;;11.20;62.60;;;;;;5091519;28;20435;-63
2022/03/02 08:02:51;;;;;;;26.50;19.30;;;11.20;62.60;;;;;;5091471;28;20020;-62
2022/03/02 08:05:17;;;;;;;26.20;19.98;;;11.20;62.60;;;;;;5074731;28;20032;-62
2022/03/02 08:07:43;;;;;;;27.55;18.77;;;11.20;62.50;;;;;;5091389;28;20090;-66
2022/03/02 08:10:09;;;;;;;24.27;19.13;;;11.10;62.90;;;;;;5093340;28;20024;-61
2022/03/02 08:12:35;;;;;;;24.23;19.13;;;11.10;62.90;;;;;;5088973;28;20431;-62
2022/03/02 08:15:03;;;;;;;26.67;19.88;;;11.20;62.90;;;;;;5094055;28;20473;-64
2022/03/02 08:17:28;;;;;;;29.20;19.08;;;11.20;62.80;;;;;;5086160;28;20039;-68
2022/03/02 08:19:54;;;;;;;24.55;19.92;;;11.20;62.60;;;;;;5074572;28;20394;-63
2022/03/02 08:22:23;;;;;;;28.17;20.30;;;11.20;62.90;;;;;;5073132;28;20508;-62
2022/03/02 08:25:02;;;;;;;30.17;21.33;;;11.20;62.90;;;;;;5073529;28;20099;-63
2022/03/02 08:27:30;;;;;;;29.20;21.17;;;11.20;62.90;;;;;;5073684;28;20028;-63
2022/03/02 08:29:56;;;;;;;25.10;19.33;;;11.20;63.10;;;;;;5073607;28;20065;-67
2022/03/02 08:32:24;;;;;;;29.10;20.75;;;11.20;63.60;;;;;;5077744;28;20435;-62
2022/03/02 08:34:51;;;;;;;23.98;19.85;;;11.20;63.00;;;;;;5093787;28;20030;-63
2022/03/02 08:37:19;;;;;;;26.83;20.10;;;11.30;62.80;;;;;;5093569;28;20125;-62
2022/03/02 08:39:46;;;;;;;23.85;19.67;;;11.20;62.60;;;;;;5093742;28;20032;-70
2022/03/02 08:42:12;;;;;;;25.40;19.35;;;11.20;63.30;;;;;;5096280;28;20027;-68
2022/03/02 08:44:38;;;;;;;26.55;19.95;;;11.20;63.90;;;;;;5081670;28;20026;-62
2022/03/02 08:47:05;;;;;;;25.60;18.80;;;11.30;63.20;;;;;;5092485;28;20397;-67
2022/03/02 08:49:31;;;;;;;24.08;19.90;;;11.30;64.20;;;;;;5089267;28;20028;-62
2022/03/02 08:51:58;;;;;;;25.40;21.02;;;11.20;63.20;;;;;;5079384;28;20039;-65
2022/03/02 08:54:26;;;;;;;29.95;21.52;;;11.20;63.40;;;;;;5073104;28;20052;-62
2022/03/02 08:56:54;;;;;;;26.23;21.60;;;11.20;63.30;;;;;;5072997;28;20031;-64
2022/03/02 08:59:22;;;;;;;29.75;20.67;;;11.20;63.60;;;;;;5073524;28;20017;-62
2022/03/02 09:01:50;;;;;;;31.50;21.77;;;11.20;63.50;;;;;;5091001;28;20110;-61
2022/03/02 09:04:18;;;;;;;32.97;21.00;;;11.20;63.80;;;;;;5090939;28;20487;-65
2022/03/02 09:06:45;;;;;;;25.95;20.65;;;11.20;63.90;;;;;;5072905;28;20052;-60
2022/03/02 09:09:11;;;;;;;25.77;20.88;;;11.20;63.80;;;;;;5074485;28;20035;-62
2022/03/02 09:11:38;;;;;;;27.00;20.45;;;11.20;63.90;;;;;;5080020;28;20028;-62
2022/03/02 09:14:04;;;;;;;27.85;20.73;;;11.20;63.90;;;;;;5092415;28;20064;-72
2022/03/02 09:16:30;;;;;;;29.42;20.40;;;11.20;64.00;;;;;;5091655;28;20056;-65
2022/03/02 09:18:56;;;;;;;24.00;19.50;;;11.30;64.50;;;;;;5092423;28;20417;-72
2022/03/02 09:21:22;;;;;;;25.95;20.45;;;11.30;64.60;;;;;;5092984;28;20031;-66
2022/03/02 09:23:48;;;;;;;29.42;20.77;;;11.30;64.50;;;;;;5093165;28;20489;-67
2022/03/02 09:26:18;;;;;;;25.88;20.70;;;11.30;64.00;;;;;;5092826;28;20431;-66
2022/03/02 09:28:47;;;;;;;26.48;20.48;;;11.30;63.90;;;;;;5087013;28;20477;-68
2022/03/02 09:31:15;;;;;;;26.55;19.58;;;11.30;64.10;;;;;;5090552;28;20016;-66
2022/03/02 09:33:44;;;;;;;26.00;21.08;;;11.40;64.70;;;;;;5089958;28;20103;-74
2022/03/02 09:36:11;;;;;;;27.65;19.77;;;11.40;64.80;;;;;;5084313;28;20022;-69
2022/03/02 09:38:38;;;;;;;25.10;20.65;;;11.40;65.10;;;;;;5086937;28;20028;-65
2022/03/02 09:41:12;;;;;;;27.67;20.95;;;11.50;64.70;;;;;;5091816;28;21751;-72
2022/03/02 09:43:42;;;;;;;24.58;19.80;;;11.50;64.10;;;;;;5092485;28;20024;-72
2022/03/02 09:46:11;;;;;;;27.52;20.98;;;11.40;64.10;;;;;;5092817;28;20058;-72
2022/03/02 09:48:46;;;;;;;27.17;20.38;;;11.40;64.20;;;;;;5090799;28;20028;-72
2022/03/02 09:51:17;;;;;;;25.88;20.05;;;11.50;64.10;;;;;;5085833;28;20485;-65
2022/03/02 09:53:48;;;;;;;26.23;21.17;;;11.50;64.10;;;;;;5090985;28;20051;-64
2022/03/02 09:56:15;;;;;;;23.45;19.08;;;11.50;63.90;;;;;;5091239;28;20449;-65
2022/03/02 09:58:44;;;;;;;26.75;20.40;;;11.50;64.50;;;;;;5092285;28;20478;-76
2022/03/02 10:01:15;;;;;;;26.27;20.05;;;11.60;64.30;;;;;;5091069;28;20024;-64
2022/03/02 10:03:46;;;;;;;22.95;20.02;;;11.60;64.20;;;;;;5090267;28;20531;-63
2022/03/02 10:06:12;;;;;;;29.70;21.98;;;11.60;63.50;;;;;;5083058;28;20020;-71
2022/03/02 10:08:49;;;;;;;29.75;20.52;;;11.60;63.40;;;;;;5091457;28;20110;-66
2022/03/02 10:11:19;;;;;;;22.92;17.98;;;11.60;64.10;;;;;;5073816;28;20066;-65
2022/03/02 10:13:45;;;;;;;27.20;19.52;;;11.60;64.40;;;;;;5079241;28;20029;-64
2022/03/02 10:16:22;;;;;;;24.58;19.95;;;11.70;64.00;;;;;;5088498;28;20035;-65
2022/03/02 10:18:56;;;;;;;22.88;18.70;;;11.70;63.90;;;;;;5081471;28;20031;-69
2022/03/02 10:21:33;;;;;;;26.55;18.80;;;11.80;63.90;;;;;;5082532;28;20115;-74
2022/03/02 10:24:03;;;;;;;28.95;19.25;;;11.80;64.60;;;;;;5076350;28;20465;-68
2022/03/02 10:26:43;;;;;;;28.80;19.58;;;11.80;64.10;;;;;;5095485;28;20047;-63
2022/03/02 10:29:31;;;;;;;25.02;18.55;;;11.80;64.30;;;;;;5087795;28;20016;-72
2022/03/02 10:32:08;;;;;;;24.80;18.02;;;11.90;63.50;;;;;;5086779;28;20497;-66
2022/03/02 10:34:46;;;;;;;23.80;18.35;;;11.90;62.50;;;;;;5091006;28;20469;-63
2022/03/02 10:37:36;;;;;;;20.85;17.95;;;11.90;62.10;;;;;;5093733;28;20043;-74
2022/03/02 10:40:12;;;;;;;22.10;18.02;;;11.90;61.80;;;;;;5087753;28;20032;-63
2022/03/02 10:42:42;;;;;;;21.38;17.42;;;12.00;62.70;;;;;;5089728;28;20469;-61
2022/03/02 10:45:12;;;;;;;24.10;17.08;;;12.00;62.30;;;;;;5094123;28;20020;-61
2022/03/02 10:48:19;;;;;;;29.38;17.70;;;12.10;61.50;;;;;;5093371;28;20028;-61
2022/03/02 10:50:46;;;;;;;20.70;16.50;;;12.10;60.30;;;;;;5088432;28;20111;-73
2022/03/02 10:53:18;;;;;;;21.83;17.70;;;12.10;59.80;;;;;;5088576;28;20024;-61
2022/03/02 10:55:46;;;;;;;24.40;17.63;;;12.10;59.90;;;;;;5080302;28;20025;-65
2022/03/02 10:58:19;;;;;;;27.30;17.27;;;12.10;59.40;;;;;;5082817;28;20339;-68
2022/03/02 11:00:47;;;;;;;23.10;17.75;;;12.10;60.20;;;;;;5093313;28;20404;-61
2022/03/02 11:03:13;;;;;;;22.80;16.65;;;12.10;59.60;;;;;;5094339;28;20024;-61
2022/03/02 11:05:39;;;;;;;20.17;15.88;;;12.10;58.80;;;;;;5094700;28;20481;-61
2022/03/02 11:08:06;;;;;;;23.63;16.10;;;12.10;58.60;;;;;;5094372;28;20036;-62
2022/03/02 11:10:33;;;;;;;24.10;16.10;;;12.20;58.90;;;;;;5092509;28;20523;-61
2022/03/02 11:13:11;;;;;;;20.45;16.13;;;12.20;58.50;;;;;;5086363;28;20718;-62
2022/03/02 11:15:48;;;;;;;18.05;14.98;;;12.20;58.20;;;;;;5084664;28;20543;-60
2022/03/02 11:18:17;;;;;;;19.95;15.35;;;12.20;58.70;;;;;;5079656;28;20044;-64
2022/03/02 11:21:17;;;;;;;21.85;15.65;;;12.30;58.00;;;;;;5073142;28;20024;-63
2022/03/02 11:23:51;;;;;;;19.30;14.68;;;12.30;59.20;;;;;;5082258;28;20088;-63
2022/03/02 11:26:26;;;;;;;20.10;15.75;;;12.30;57.20;;;;;;5086488;28;20039;-63
2022/03/02 11:28:54;;;;;;;20.95;15.18;;;12.30;57.30;;;;;;5090562;28;20069;-63
2022/03/02 11:31:30;;;;;;;19.85;15.25;;;12.30;58.30;;;;;;5090461;28;20485;-63
2022/03/02 11:34:16;;;;;;;17.65;15.18;;;12.30;56.90;;;;;;5089919;28;20099;-63
2022/03/02 11:36:46;;;;;;;19.83;14.93;;;12.40;56.70;;;;;;5092349;28;20016;-63
2022/03/02 11:39:14;;;;;;;18.75;13.63;;;12.40;55.50;;;;;;5088134;28;20052;-67
2022/03/02 11:41:42;;;;;;;17.50;14.68;;;12.40;56.00;;;;;;5076010;28;20047;-61
2022/03/02 11:44:31;;;;;;;18.17;14.43;;;12.40;56.00;;;;;;5092139;28;20020;-60
2022/03/02 11:47:02;;;;;;;17.67;13.55;;;12.40;56.00;;;;;;5092214;28;20032;-61
2022/03/02 11:49:48;;;;;;;20.65;13.60;;;12.50;54.40;;;;;;5092806;28;20036;-60
2022/03/02 11:52:15;;;;;;;20.30;13.13;;;12.50;54.00;;;;;;5093890;28;20118;-63
2022/03/02 11:54:47;;;;;;;18.33;13.50;;;12.50;53.40;;;;;;5079424;28;20025;-74
2022/03/02 11:57:15;;;;;;;17.67;12.82;;;12.50;54.30;;;;;;5089372;28;20114;-72
2022/03/02 11:59:41;;;;;;;17.92;13.80;;;12.50;52.90;;;;;;5093896;28;20099;-60
2022/03/02 12:02:14;;;;;;;16.80;13.85;;;12.60;52.80;;;;;;5094449;28;20107;-60
2022/03/02 12:04:40;;;;;;;17.52;14.65;;;12.60;54.10;;;;;;5094344;28;20020;-64
2022/03/02 12:07:08;;;;;;;16.67;12.95;;;12.60;53.20;;;;;;5094220;28;20081;-69
2022/03/02 12:09:38;;;;;;;17.75;13.68;;;12.60;52.20;;;;;;5094066;28;20107;-61
2022/03/02 12:12:16;;;;;;;16.10;12.43;;;12.60;52.60;;;;;;5073995;28;20397;-60
2022/03/02 12:14:54;;;;;;;17.08;12.82;;;12.70;53.40;;;;;;5093394;28;20028;-60
2022/03/02 12:17:25;;;;;;;16.23;13.43;;;12.70;52.10;;;;;;5083840;28;20150;-76
2022/03/02 12:19:57;;;;;;;15.85;13.07;;;12.70;52.90;;;;;;5071813;28;20512;-60
2022/03/02 12:22:30;;;;;;;17.88;13.60;;;12.80;53.60;;;;;;5084126;28;20051;-61
2022/03/02 12:24:58;;;;;;;17.50;13.43;;;12.80;53.20;;;;;;5079816;28;20028;-61
2022/03/02 12:27:24;;;;;;;19.38;14.35;;;12.80;53.40;;;;;;5085400;28;20055;-61
2022/03/02 12:30:04;;;;;;;16.33;14.05;;;12.80;53.50;;;;;;5093109;28;20020;-61
2022/03/02 12:32:34;;;;;;;16.73;13.68;;;12.90;54.10;;;;;;5092846;28;20087;-61